createdAt,value
2023-04-04T00:47:51.810Z,1.58
2023-04-04T00:48:55.176Z,1.10
2023-04-04T00:50:00.408Z,1.75
2023-04-04T00:51:04.742Z,1.13
2023-04-04T00:52:07.895Z,1.00
2023-04-04T00:53:11.074Z,1.30
2023-04-04T00:54:13.432Z,1.10
2023-04-04T00:55:19.232Z,1.20
2023-04-04T00:56:23.403Z,1.20
2023-04-04T00:57:27.718Z,1.20
2023-04-04T00:58:32.936Z,1.42
2023-04-04T00:59:38.667Z,1.20
2023-04-04T01:00:41.925Z,1.48
2023-04-04T01:01:44.187Z,1.52
2023-04-04T01:02:49.202Z,1.40
2023-04-04T01:03:52.091Z,1.30
2023-04-04T01:04:54.302Z,1.92
2023-04-04T01:05:57.670Z,1.33
2023-04-04T01:07:04.174Z,1.10
2023-04-04T01:08:07.344Z,1.10
2023-04-04T01:09:12.652Z,1.15
2023-04-04T01:10:19.124Z,1.40
2023-04-04T01:11:21.579Z,1.45
2023-04-04T01:12:24.476Z,0.95
2023-04-04T01:13:27.409Z,1.27
2023-04-04T01:14:29.405Z,1.35
2023-04-04T01:15:31.456Z,1.13
2023-04-04T01:16:39.081Z,0.93
2023-04-04T01:17:42.677Z,1.42
2023-04-04T01:18:46.382Z,1.00
2023-04-04T01:20:19.020Z,1.40
2023-04-04T01:21:23.264Z,0.90
2023-04-04T01:22:28.791Z,1.10
2023-04-04T01:23:39.545Z,1.42
2023-04-04T01:24:43.440Z,1.05
2023-04-04T01:25:46.324Z,1.67
2023-04-04T01:26:49.793Z,1.63
2023-04-04T01:27:55.172Z,1.40
2023-04-04T01:29:00.116Z,1.13
2023-04-04T01:30:06.092Z,1.42
2023-04-04T01:31:09.790Z,1.40
2023-04-04T01:32:18.474Z,1.10
2023-04-04T01:33:30.393Z,1.10
2023-04-04T01:34:40.604Z,1.20
2023-04-04T01:35:42.903Z,1.20
2023-04-04T01:36:49.617Z,1.25
2023-04-04T01:38:10.851Z,1.38
2023-04-04T01:39:23.051Z,1.00
2023-04-04T01:40:28.812Z,1.83
2023-04-04T01:41:36.325Z,1.38
2023-04-04T01:42:40.605Z,1.35
2023-04-04T01:43:44.741Z,1.30
2023-04-04T01:44:47.883Z,1.30
2023-04-04T01:45:53.523Z,1.25
2023-04-04T01:46:57.915Z,1.52
2023-04-04T01:48:00.285Z,1.60
2023-04-04T01:49:03.170Z,1.40
2023-04-04T01:50:09.533Z,1.50
2023-04-04T01:51:11.314Z,1.20
2023-04-04T01:52:17.140Z,1.30
2023-04-04T01:53:19.356Z,1.27
2023-04-04T01:54:25.521Z,0.95
2023-04-04T01:55:28.239Z,1.13
2023-04-04T01:56:32.048Z,1.25
2023-04-04T01:57:37.506Z,1.30
2023-04-04T01:58:43.004Z,1.42
2023-04-04T01:59:44.605Z,1.20
2023-04-04T02:00:46.841Z,1.13
2023-04-04T02:01:49.303Z,1.20
2023-04-04T02:02:51.745Z,1.33
2023-04-04T02:03:54.459Z,1.40
2023-04-04T02:04:58.793Z,1.40
2023-04-04T02:06:00.500Z,1.10
2023-04-04T02:07:03.118Z,1.40
2023-04-04T02:08:07.112Z,1.33
2023-04-04T02:09:10.801Z,1.15
2023-04-04T02:10:16.295Z,1.27
2023-04-04T02:11:20.950Z,1.50
2023-04-04T02:12:24.217Z,1.20
2023-04-04T02:13:28.763Z,1.40
2023-04-04T02:14:33.538Z,1.35
2023-04-04T02:15:38.085Z,1.27
2023-04-04T02:16:41.110Z,1.27
2023-04-04T02:17:47.713Z,1.20
2023-04-04T02:18:50.437Z,1.65
2023-04-04T02:19:53.402Z,1.20
2023-04-04T02:20:55.772Z,1.10
2023-04-04T02:21:58.240Z,1.33
2023-04-04T02:23:00.458Z,1.83
2023-04-04T02:24:02.261Z,1.48
2023-04-04T02:25:07.896Z,1.67
2023-04-04T02:26:13.300Z,1.48
2023-04-04T02:27:17.124Z,1.17
2023-04-04T02:28:18.920Z,1.13
2023-04-04T02:29:24.056Z,1.27
2023-04-04T02:30:27.610Z,1.20
2023-04-04T02:31:30.894Z,1.20
2023-04-04T02:32:33.397Z,1.45
2023-04-04T02:33:37.829Z,1.48
2023-04-04T02:34:40.209Z,1.08
2023-04-04T02:35:43.181Z,1.25
2023-04-04T02:36:45.971Z,1.17
2023-04-04T02:37:47.753Z,1.27
2023-04-04T02:38:52.740Z,1.52
2023-04-04T02:39:57.680Z,1.27
2023-04-04T02:41:00.650Z,1.50
2023-04-04T02:42:02.346Z,1.40
2023-04-04T02:43:08.192Z,1.98
2023-04-04T02:44:12.676Z,1.70
2023-04-04T02:45:15.967Z,1.52
2023-04-04T02:46:21.523Z,1.67
2023-04-04T02:47:25.407Z,1.40
2023-04-04T02:48:27.512Z,1.52
2023-04-04T02:49:32.588Z,1.10
2023-04-04T02:50:34.566Z,1.30
2023-04-04T02:51:37.022Z,1.20
2023-04-04T02:52:40.309Z,1.60
2023-04-04T02:53:43.159Z,1.38
2023-04-04T02:54:46.431Z,1.63
2023-04-04T02:55:52.348Z,1.35
2023-04-04T02:56:54.294Z,1.75
2023-04-04T02:57:58.585Z,1.50
2023-04-04T02:59:00.354Z,1.40
2023-04-04T03:00:04.853Z,1.38
2023-04-04T03:01:07.315Z,1.30
2023-04-04T03:02:11.192Z,1.58
2023-04-04T03:03:13.512Z,1.30
2023-04-04T03:04:16.494Z,1.40
2023-04-04T03:05:18.316Z,1.40
2023-04-04T03:06:21.130Z,1.73
2023-04-04T03:07:23.386Z,1.27
2023-04-04T03:08:31.188Z,1.20
2023-04-04T03:09:33.322Z,1.27
2023-04-04T03:10:40.241Z,1.73
2023-04-04T03:11:45.999Z,1.23
2023-04-04T03:12:48.931Z,1.10
2023-04-04T03:13:55.343Z,1.23
2023-04-04T03:14:56.960Z,1.20
2023-04-04T03:16:15.396Z,1.02
2023-04-04T03:17:18.565Z,1.00
2023-04-04T03:18:23.248Z,1.20
2023-04-04T03:19:26.522Z,1.08
2023-04-04T03:20:28.226Z,1.38
2023-04-04T03:21:31.417Z,1.50
2023-04-04T03:22:33.357Z,1.10
2023-04-04T03:23:35.219Z,2.05
2023-04-04T03:24:39.264Z,2.20
2023-04-04T03:25:43.289Z,2.72
2023-04-04T03:26:45.251Z,2.92
2023-04-04T03:27:48.103Z,2.72
2023-04-04T03:28:50.542Z,3.20
2023-04-04T03:29:55.925Z,2.97
2023-04-04T05:56:53.312Z,2.55
2023-04-04T05:57:57.721Z,2.50
2023-04-04T05:59:01.888Z,2.97
2023-04-04T06:00:08.913Z,2.70
2023-04-04T06:01:13.754Z,2.65
2023-04-04T06:02:15.420Z,2.80
2023-04-04T06:03:20.418Z,2.88
2023-04-04T06:04:27.417Z,3.03
2023-04-04T06:05:33.809Z,3.00
2023-04-04T06:06:38.645Z,2.88
2023-04-04T06:07:43.418Z,2.53
2023-04-04T06:08:53.584Z,2.65
2023-04-04T06:09:56.818Z,2.67
2023-04-04T06:10:59.781Z,3.58
2023-04-04T06:12:04.694Z,2.70
2023-04-04T06:13:07.913Z,2.50
2023-04-04T06:14:13.844Z,2.70
2023-04-04T06:15:19.164Z,2.20
2023-04-04T06:16:22.012Z,2.25
2023-04-04T06:17:24.637Z,2.50
2023-04-04T06:18:26.753Z,2.30
2023-04-04T06:19:28.381Z,2.10
2023-04-04T06:20:31.394Z,1.98
2023-04-04T06:21:34.072Z,2.22
2023-04-04T06:22:38.886Z,2.17
2023-04-04T06:23:52.957Z,2.40
2023-04-04T06:24:59.296Z,2.53
2023-04-04T06:26:02.571Z,2.50
2023-04-04T06:30:45.632Z,2.00
2023-04-04T06:33:49.357Z,1.70
2023-04-04T06:36:28.502Z,1.60
2023-04-04T06:37:45.725Z,1.70
2023-04-04T06:40:42.229Z,1.67
2023-04-04T06:42:12.861Z,1.50
2023-04-04T06:43:15.767Z,2.08
2023-04-04T06:44:18.579Z,1.63
2023-04-04T06:45:20.734Z,1.90
2023-04-04T06:46:27.799Z,1.55
2023-04-04T06:47:32.672Z,1.70
2023-04-04T08:14:12.720Z,3.00
2023-04-04T08:15:16.552Z,3.15
2023-04-04T08:17:43.851Z,4.22
2023-04-04T08:18:48.815Z,3.70
2023-04-04T08:19:54.599Z,3.50
2023-04-04T08:20:59.572Z,4.18
2023-04-04T08:22:08.607Z,3.70
2023-04-04T08:23:11.526Z,4.00
2023-04-04T08:25:17.952Z,3.33
2023-04-04T08:26:20.736Z,3.97
2023-04-04T08:27:26.659Z,3.30
2023-04-04T08:28:31.514Z,3.90
2023-04-04T08:29:34.810Z,2.65
2023-04-04T08:30:39.125Z,3.10
2023-04-04T08:31:44.183Z,3.00
2023-04-04T08:32:49.589Z,3.17
2023-04-04T08:33:52.693Z,3.15
2023-04-04T08:34:59.953Z,3.25
2023-04-04T08:36:10.962Z,2.90
2023-04-04T08:37:13.871Z,2.33
2023-04-04T08:38:26.012Z,2.65
2023-04-04T08:39:31.945Z,2.60
2023-04-04T08:40:38.937Z,2.58
2023-04-04T08:41:48.187Z,2.50
2023-04-04T08:42:52.206Z,2.55
2023-04-04T08:44:04.189Z,2.50
2023-04-04T08:45:08.326Z,2.90
2023-04-04T08:46:13.443Z,2.72
2023-04-04T08:47:20.000Z,2.40
2023-04-04T08:48:27.127Z,2.70
2023-04-04T08:49:39.022Z,2.88
2023-04-04T08:51:29.717Z,2.50
2023-04-04T08:55:11.270Z,2.60
2023-04-04T08:56:14.172Z,12.68
2023-04-04T08:57:20.379Z,3.22
2023-04-04T08:58:22.771Z,4.05
2023-04-04T08:59:27.270Z,3.00
2023-04-04T09:00:33.162Z,3.10
2023-04-04T09:01:39.392Z,2.58
2023-04-04T09:02:54.925Z,3.40
2023-04-04T09:04:02.822Z,2.80
2023-04-04T09:05:06.876Z,2.17
2023-04-04T09:06:12.701Z,2.00
2023-04-04T09:07:19.882Z,2.13
2023-04-04T09:08:25.534Z,2.20
2023-04-04T09:09:33.581Z,1.70
2023-04-04T09:10:39.651Z,2.07
2023-04-04T09:11:49.312Z,2.20
2023-04-04T09:12:55.478Z,2.30
2023-04-04T09:14:03.235Z,2.17
2023-04-04T09:15:06.751Z,1.80
2023-04-04T09:16:17.897Z,1.92
2023-04-04T09:17:19.861Z,1.98
2023-04-04T09:18:25.234Z,1.80
2023-04-04T09:19:26.911Z,1.88
2023-04-04T09:20:42.816Z,1.83
2023-04-04T09:21:49.557Z,1.98
2023-04-04T09:22:51.834Z,2.40
2023-04-04T09:24:05.257Z,1.73
2023-04-04T09:25:08.108Z,2.20
2023-04-04T09:26:13.811Z,2.03
2023-04-04T09:27:17.595Z,1.73
2023-04-04T09:28:23.473Z,1.75
2023-04-04T09:29:25.280Z,1.90
2023-04-04T09:30:28.367Z,2.10
2023-04-04T09:31:30.738Z,2.00
2023-04-04T09:32:38.257Z,1.70
2023-04-04T09:33:43.948Z,1.88
2023-04-04T09:34:52.515Z,1.80
2023-04-04T09:35:59.324Z,1.67
2023-04-04T09:37:01.028Z,1.80
2023-04-04T09:38:04.308Z,1.75
2023-04-04T09:39:28.509Z,1.95
2023-04-04T09:40:31.734Z,1.83
2023-04-04T09:41:35.493Z,2.28
2023-04-04T09:42:39.135Z,1.60
2023-04-04T09:43:44.891Z,1.80
2023-04-04T09:44:48.626Z,1.80
2023-04-04T09:45:51.930Z,1.90
2023-04-04T09:47:15.502Z,1.50
2023-04-04T09:48:31.359Z,2.10
2023-04-04T09:49:37.529Z,1.70
2023-04-04T09:50:48.592Z,2.28
2023-04-04T09:52:00.804Z,1.80
2023-04-04T09:53:06.458Z,2.13
2023-04-04T09:54:18.705Z,1.73
2023-04-04T09:55:49.117Z,1.60
2023-04-04T09:56:53.760Z,1.70
2023-04-04T09:57:58.883Z,5.63
2023-04-04T09:59:05.549Z,1.83
2023-04-04T10:00:10.821Z,1.90
2023-04-04T10:01:12.916Z,1.55
2023-04-04T10:02:24.360Z,1.70
2023-04-04T10:03:31.830Z,1.83
2023-04-04T10:04:40.441Z,1.60
2023-04-04T10:05:45.868Z,2.30
2023-04-04T10:06:48.478Z,1.70
2023-04-04T10:07:52.591Z,1.80
2023-04-04T10:08:59.826Z,1.70
2023-04-04T10:10:07.372Z,4.07
2023-04-04T10:11:11.889Z,3.13
2023-04-04T10:12:15.133Z,2.40
2023-04-04T10:13:31.268Z,2.10
2023-04-04T10:14:37.820Z,2.40
2023-04-04T10:15:44.733Z,2.05
2023-04-04T10:16:49.410Z,1.67
2023-04-04T10:17:56.476Z,2.30
2023-04-04T10:18:59.061Z,2.05
2023-04-04T10:20:06.186Z,1.90
2023-04-04T10:22:15.672Z,1.75
2023-04-04T10:23:21.581Z,1.67
2023-04-04T10:24:24.434Z,1.60
2023-04-04T10:25:30.330Z,2.65
2023-04-04T10:26:34.922Z,1.95
2023-04-04T10:27:38.931Z,2.00
2023-04-04T10:28:42.646Z,1.75
2023-04-04T10:29:44.664Z,2.13
2023-04-04T10:31:05.270Z,2.47
2023-04-04T10:32:12.747Z,3.60
2023-04-04T10:33:21.406Z,3.25
2023-04-04T10:34:33.626Z,1.80
2023-04-04T10:35:37.082Z,2.00
2023-04-04T10:37:12.952Z,2.00
2023-04-04T10:38:18.899Z,1.80
2023-04-04T10:39:50.329Z,1.80
2023-04-04T10:40:54.083Z,1.90
2023-04-04T10:41:57.597Z,1.90
2023-04-04T10:43:03.209Z,2.45
2023-04-04T10:44:13.257Z,2.10
2023-04-04T10:45:21.624Z,1.75
2023-04-04T10:46:33.813Z,1.80
2023-04-04T10:47:37.987Z,1.95
2023-04-04T10:48:44.066Z,2.17
2023-04-04T10:49:50.171Z,14.48
2023-04-04T10:50:52.886Z,2.10
2023-04-04T10:51:56.913Z,1.88
2023-04-04T10:53:06.795Z,1.90
2023-04-04T10:54:09.116Z,2.08
2023-04-04T10:55:12.601Z,1.90
2023-04-04T10:56:19.153Z,1.90
2023-04-04T10:57:21.623Z,2.10
2023-04-04T10:58:29.207Z,2.10
2023-04-04T10:59:34.353Z,2.00
2023-04-04T11:00:49.396Z,2.08
2023-04-04T11:02:00.587Z,2.67
2023-04-04T11:03:02.689Z,2.00
2023-04-04T11:04:23.075Z,1.80
2023-04-04T11:05:50.525Z,2.13
2023-04-04T11:07:11.986Z,1.88
2023-04-04T11:08:25.574Z,2.17
2023-04-04T11:09:48.778Z,1.90
2023-04-04T11:10:53.190Z,1.80
2023-04-04T11:12:23.742Z,2.22
2023-04-04T11:13:40.960Z,1.80
2023-04-04T11:14:55.014Z,1.95
2023-04-04T11:16:16.068Z,1.90
2023-04-04T11:17:18.704Z,2.15
2023-04-04T11:18:33.222Z,6.15
2023-04-04T11:19:40.217Z,1.95
2023-04-04T11:20:51.112Z,1.80
2023-04-04T11:21:56.259Z,1.75
2023-04-04T11:23:17.644Z,2.25
2023-04-04T11:24:21.347Z,1.90
2023-04-04T11:25:31.268Z,2.78
2023-04-04T11:26:33.783Z,3.45
2023-04-04T11:27:38.156Z,1.95
2023-04-04T11:28:48.297Z,1.90
2023-04-04T11:29:54.461Z,1.80
2023-04-04T11:31:19.062Z,2.38
2023-04-04T11:32:56.593Z,3.08
2023-04-04T11:34:08.553Z,2.45
2023-04-04T11:35:11.778Z,2.10
2023-04-04T11:36:25.072Z,2.42
2023-04-04T11:37:45.956Z,4.55
2023-04-04T11:38:50.782Z,2.15
2023-04-04T11:39:59.844Z,2.10
2023-04-04T11:41:01.748Z,2.42
2023-04-04T11:42:15.969Z,2.80
2023-04-04T11:43:20.584Z,2.38
2023-04-04T11:44:24.585Z,2.40
2023-04-04T11:45:29.586Z,1.88
2023-04-04T11:46:33.295Z,2.50
2023-04-04T11:47:38.775Z,3.55
2023-04-04T11:48:44.505Z,2.40
2023-04-04T11:49:47.275Z,2.20
2023-04-04T11:50:50.227Z,2.15
2023-04-04T11:51:55.320Z,2.10
2023-04-04T11:52:58.379Z,1.92
2023-04-04T11:54:02.262Z,1.90
2023-04-04T11:55:16.570Z,2.22
2023-04-04T11:56:21.618Z,2.30
2023-04-04T11:57:27.713Z,2.20
2023-04-04T11:58:29.742Z,2.08
2023-04-04T11:59:33.034Z,2.20
2023-04-04T12:00:38.732Z,1.92
2023-04-04T12:01:44.583Z,2.20
2023-04-04T12:02:46.809Z,2.10
2023-04-04T12:03:52.309Z,2.08
2023-04-04T12:04:56.641Z,3.03
2023-04-04T12:06:00.570Z,2.78
2023-04-04T12:07:05.392Z,2.25
2023-04-04T12:08:12.706Z,2.10
2023-04-04T12:09:21.937Z,2.10
2023-04-04T12:10:25.819Z,2.40
2023-04-04T12:11:34.138Z,2.78
2023-04-04T12:12:42.110Z,2.92
2023-04-04T12:13:45.313Z,2.13
2023-04-04T12:14:50.627Z,2.42
2023-04-04T12:15:54.631Z,2.40
2023-04-04T12:17:00.357Z,2.30
2023-04-04T12:18:12.880Z,2.45
2023-04-04T12:19:15.052Z,2.30
2023-04-04T12:20:17.506Z,2.53
2023-04-04T12:21:20.024Z,2.90
2023-04-04T12:22:25.258Z,3.00
2023-04-04T12:23:31.452Z,2.90
2023-04-04T12:24:35.278Z,3.05
2023-04-04T12:25:40.520Z,2.20
2023-04-04T12:26:44.581Z,2.60
2023-04-04T12:27:49.033Z,2.22
2023-04-04T12:28:54.081Z,2.10
2023-04-04T12:29:57.306Z,2.10
2023-04-04T12:31:10.982Z,2.30
2023-04-04T12:32:16.217Z,2.20
2023-04-04T12:33:22.572Z,2.00
2023-04-04T12:34:35.489Z,2.50
2023-04-04T12:35:39.403Z,2.45
2023-04-04T12:36:49.247Z,2.33
2023-04-04T12:39:51.448Z,2.13
2023-04-04T12:40:56.275Z,2.70
2023-04-04T12:41:58.893Z,1.98
2023-04-04T12:43:02.353Z,2.40
2023-04-04T15:16:39.164Z,2.50
2023-04-04T15:17:42.268Z,2.63
2023-04-04T15:18:46.827Z,2.40
2023-04-04T15:19:49.689Z,2.20
2023-04-04T15:20:54.644Z,2.10
2023-04-04T15:21:57.592Z,4.00
2023-04-04T15:22:59.708Z,2.33
2023-04-04T15:24:05.582Z,1.90
2023-04-04T15:25:13.393Z,1.95
2023-04-04T15:26:16.172Z,1.83
2023-04-04T15:27:18.583Z,1.92
2023-04-04T15:28:21.827Z,1.98
2023-04-04T15:29:23.577Z,1.70
2023-04-04T15:30:27.278Z,1.60
2023-04-04T15:31:30.694Z,2.20
2023-04-04T15:32:33.622Z,2.20
2023-04-04T15:33:38.440Z,2.10
2023-04-04T15:34:41.144Z,2.63
2023-04-04T15:35:43.840Z,2.08
2023-04-04T15:36:49.564Z,2.50
2023-04-04T15:37:51.598Z,2.25
2023-04-04T15:38:53.509Z,2.70
2023-04-04T15:39:57.831Z,2.08
2023-04-04T15:41:01.028Z,2.47
2023-04-04T15:42:06.056Z,2.63
2023-04-04T15:43:08.792Z,2.83
2023-04-04T15:44:13.922Z,2.42
2023-04-04T15:45:20.179Z,3.25
2023-04-04T15:46:25.673Z,3.45
2023-04-04T15:47:27.275Z,2.45
2023-04-04T15:48:31.852Z,3.95
2023-04-04T15:49:35.104Z,2.20
2023-04-04T15:50:37.642Z,4.18
2023-04-04T15:51:43.568Z,2.13
2023-04-04T15:52:45.965Z,2.00
2023-04-04T15:53:51.594Z,2.08
2023-04-04T15:54:53.626Z,1.60
2023-04-04T15:55:55.353Z,1.95
2023-04-04T15:57:00.333Z,1.88
2023-04-04T15:58:01.912Z,2.15
2023-04-04T15:59:06.017Z,2.22
2023-04-04T16:00:08.602Z,2.38
2023-04-04T16:01:10.927Z,1.40
2023-04-04T16:02:14.270Z,1.90
2023-04-04T16:03:19.033Z,1.88
2023-04-04T16:04:21.945Z,1.85
2023-04-04T16:05:24.089Z,1.67
2023-04-04T16:06:29.623Z,2.10
2023-04-04T16:07:32.177Z,2.13
2023-04-04T16:08:38.248Z,1.60
2023-04-04T16:53:46.765Z,9.85
2023-04-04T16:54:51.525Z,3.60
2023-04-04T16:55:53.642Z,3.38
2023-04-04T16:56:59.057Z,2.80
2023-04-04T16:58:02.913Z,3.45
2023-04-04T16:59:08.196Z,3.30
2023-04-04T17:00:15.178Z,3.70
2023-04-04T17:01:21.123Z,9.40
2023-04-04T17:02:23.668Z,5.90
2023-04-04T17:03:26.539Z,10.73
2023-04-04T17:04:31.445Z,4.03
2023-04-04T17:05:36.572Z,3.30
2023-04-04T17:06:39.806Z,4.32
2023-04-04T17:07:43.103Z,4.68
2023-04-04T17:08:46.859Z,4.90
2023-04-04T17:09:51.757Z,4.55
2023-04-04T17:10:53.386Z,4.35
2023-04-04T17:11:59.798Z,4.63
2023-04-04T17:13:02.523Z,4.90
2023-04-04T17:14:09.190Z,6.10
2023-04-04T17:15:15.587Z,7.03
2023-04-04T17:16:21.703Z,9.00
2023-04-04T17:17:23.400Z,8.15
2023-04-04T17:18:25.200Z,9.50
2023-04-04T17:19:32.109Z,5.75
2023-04-04T17:20:34.727Z,10.20
2023-04-04T17:21:37.120Z,11.57
2023-04-04T17:22:39.735Z,7.63
2023-04-04T17:23:43.861Z,7.43
2023-04-04T17:24:47.959Z,7.45
2023-04-04T17:25:52.630Z,6.75
2023-04-04T17:26:59.541Z,6.50
2023-04-04T17:28:04.781Z,5.30
2023-04-04T17:29:06.917Z,5.20
2023-04-04T17:30:10.511Z,5.88
2023-04-04T17:31:15.902Z,6.20
2023-04-04T17:32:19.616Z,6.25
2023-04-04T17:33:23.324Z,6.78
2023-04-04T17:34:29.284Z,5.30
2023-04-04T17:35:31.750Z,4.97
2023-04-04T17:36:34.441Z,4.32
2023-04-04T17:37:39.121Z,4.85
2023-04-04T17:38:42.785Z,4.45
2023-04-04T17:39:46.992Z,4.50
2023-04-04T17:40:49.958Z,7.47
2023-04-04T17:41:52.321Z,8.30
2023-04-04T17:42:55.111Z,13.60
2023-04-04T17:43:59.457Z,5.63
2023-04-04T17:45:04.422Z,5.07
2023-04-04T17:46:07.968Z,4.00
2023-04-04T17:47:09.742Z,4.40
2023-04-04T17:48:12.729Z,4.30
2023-04-04T17:49:23.123Z,4.18
2023-04-04T17:50:25.696Z,4.00
2023-04-04T17:51:31.184Z,4.38
2023-04-04T17:52:36.734Z,4.28
2023-04-04T17:53:38.635Z,3.80
2023-04-04T17:54:40.704Z,3.55
2023-04-04T17:55:43.334Z,4.07
2023-04-04T17:56:49.415Z,3.80
2023-04-04T17:57:52.243Z,4.40
2023-04-04T17:59:00.891Z,4.32
2023-04-04T18:00:07.344Z,4.55
2023-04-04T18:01:09.057Z,4.28
2023-04-04T18:02:12.199Z,4.50
2023-04-04T18:03:17.700Z,5.43
2023-04-04T18:04:22.781Z,5.35
2023-04-04T18:05:25.470Z,5.15
2023-04-04T18:06:28.616Z,4.97
2023-04-04T18:07:33.417Z,5.13
2023-04-04T18:08:36.674Z,4.57
2023-04-04T18:09:38.876Z,4.47
2023-04-04T18:10:40.665Z,3.78
2023-04-04T18:11:42.732Z,3.60
2023-04-04T18:12:46.723Z,2.92
2023-04-04T18:13:48.838Z,3.20
2023-04-04T18:14:53.962Z,3.60
2023-04-04T18:15:56.621Z,2.65
2023-04-04T18:16:58.318Z,2.55
2023-04-04T18:18:00.744Z,2.90
2023-04-04T18:19:02.356Z,3.30
2023-04-04T18:20:09.148Z,3.10
2023-04-04T18:21:12.194Z,3.30
2023-04-04T18:22:15.144Z,3.53
2023-04-04T18:23:20.080Z,3.72
2023-04-04T18:24:25.368Z,3.28
2023-04-04T18:25:30.398Z,3.70
2023-04-04T18:26:32.721Z,3.55
2023-04-04T18:27:35.087Z,4.75
2023-04-04T18:28:39.755Z,4.47
2023-04-04T18:29:45.716Z,5.20
2023-04-04T18:30:47.405Z,4.22
2023-04-04T18:31:50.854Z,4.28
2023-04-04T18:32:52.672Z,4.53
2023-04-04T18:33:55.663Z,3.95
2023-04-04T18:34:58.449Z,3.75
2023-04-04T18:36:00.572Z,4.10
2023-04-04T18:37:04.924Z,4.13
2023-04-04T18:38:08.967Z,4.03
2023-04-04T18:39:14.688Z,4.32
2023-04-04T18:40:20.177Z,3.63
2023-04-04T18:41:23.254Z,3.65
2023-04-04T18:42:32.165Z,3.65
2023-04-04T18:43:35.866Z,3.80
2023-04-04T18:44:39.971Z,3.03
2023-04-04T18:45:46.070Z,3.08
2023-04-04T18:46:47.857Z,3.85
2023-04-04T18:47:50.268Z,3.80
2023-04-04T18:48:52.716Z,3.40
2023-04-04T18:49:54.737Z,4.03
2023-04-04T18:50:56.720Z,3.72
2023-04-04T18:53:14.755Z,3.75
2023-04-04T18:54:20.081Z,4.00
2023-04-04T18:55:22.896Z,4.38
2023-04-04T18:56:26.391Z,4.95
2023-04-04T18:57:30.966Z,4.03
2023-04-04T18:58:32.766Z,4.20
2023-04-04T18:59:34.806Z,4.72
2023-04-04T19:00:39.504Z,4.82
2023-04-04T19:01:42.969Z,4.25
2023-04-04T19:02:45.898Z,3.65
2023-04-04T19:03:50.299Z,4.40
2023-04-04T19:04:55.510Z,4.03
2023-04-04T19:06:00.152Z,4.07
2023-04-04T19:07:07.104Z,4.85
2023-04-04T19:08:09.203Z,5.30
2023-04-04T19:09:12.180Z,5.15
2023-04-04T19:10:15.036Z,6.60
2023-04-04T19:11:17.030Z,6.00
2023-04-04T19:12:18.897Z,6.20
2023-04-04T19:13:24.845Z,6.72
2023-04-04T19:14:30.214Z,4.60
2023-04-04T19:15:34.362Z,4.72
2023-04-04T19:16:39.215Z,3.88
2023-04-04T19:17:41.779Z,3.42
2023-04-04T19:18:44.527Z,3.60
2023-04-04T19:19:47.795Z,4.63
2023-04-04T19:20:51.106Z,3.85
2023-04-04T19:21:52.764Z,4.10
2023-04-04T19:22:55.447Z,3.70
2023-04-04T19:24:02.456Z,3.85
2023-04-04T19:25:05.256Z,3.95
2023-04-04T19:26:10.587Z,3.47
2023-04-04T19:27:15.871Z,3.67
2023-04-04T19:28:18.139Z,3.40
2023-04-04T19:29:21.505Z,3.60
2023-04-04T19:30:42.764Z,3.67
2023-04-04T19:31:45.579Z,3.70
2023-04-04T19:32:47.713Z,3.42
2023-04-04T19:33:55.311Z,3.20
2023-04-04T19:35:00.668Z,3.42
2023-04-04T19:36:11.357Z,3.83
2023-04-04T19:37:15.522Z,4.00
2023-04-04T19:38:21.015Z,3.85
2023-04-04T19:39:23.420Z,3.75
2023-04-04T19:40:46.157Z,3.88
2023-04-04T19:41:48.808Z,3.80
2023-04-04T19:42:51.986Z,3.30
2023-04-04T19:43:53.830Z,3.92
2023-04-04T19:45:01.448Z,3.63
2023-04-04T19:46:09.077Z,3.53
2023-04-04T19:47:12.528Z,3.63
2023-04-04T19:48:35.920Z,4.13
2023-04-04T19:49:43.042Z,4.50
2023-04-04T19:50:45.595Z,5.60
2023-04-04T19:52:00.575Z,5.60
2023-04-04T19:53:02.873Z,5.32
2023-04-04T19:54:11.899Z,4.07
2023-04-04T19:55:33.648Z,4.50
2023-04-04T19:56:38.887Z,3.92
2023-04-04T19:57:43.774Z,5.40
2023-04-04T19:58:46.130Z,5.28
2023-04-04T20:00:08.782Z,5.57
2023-04-04T20:02:37.854Z,5.20
2023-04-04T20:03:41.017Z,5.20
2023-04-04T20:04:45.072Z,5.40
2023-04-04T20:05:56.626Z,5.05
2023-04-04T20:06:58.746Z,5.43
2023-04-04T20:08:04.900Z,5.47
2023-04-04T20:09:15.366Z,6.40
2023-04-04T20:10:38.956Z,6.03
2023-04-04T20:11:43.999Z,6.40
2023-04-04T20:12:45.838Z,7.03
2023-04-04T20:13:50.668Z,5.85
2023-04-04T20:14:55.479Z,6.03
2023-04-04T20:16:02.349Z,6.10
2023-04-04T20:17:05.353Z,7.65
2023-04-04T20:18:10.490Z,6.80
2023-04-04T20:19:14.738Z,7.00
2023-04-04T20:20:39.367Z,6.55
2023-04-04T20:21:41.302Z,6.82
2023-04-04T20:23:47.358Z,6.95
2023-04-04T20:24:50.287Z,6.13
2023-04-04T20:25:53.199Z,6.20
2023-04-04T20:26:56.918Z,5.95
2023-04-04T20:28:00.031Z,5.57
2023-04-04T20:29:15.646Z,5.75
2023-04-04T20:30:20.432Z,5.88
2023-04-04T20:31:26.036Z,4.80
2023-04-04T20:32:30.150Z,5.20
2023-04-04T20:33:54.436Z,5.25
2023-04-04T20:34:56.932Z,4.88
2023-04-04T20:36:26.253Z,4.75
2023-04-04T20:37:28.997Z,4.03
2023-04-04T20:38:34.680Z,4.65
2023-04-04T20:39:55.096Z,3.40
2023-04-04T20:41:00.301Z,4.35
2023-04-04T20:42:10.501Z,4.25
2023-04-04T20:43:13.594Z,4.35
2023-04-04T20:44:18.813Z,3.58
2023-04-04T20:45:39.006Z,3.78
2023-04-04T20:46:40.782Z,4.20
2023-04-04T20:47:52.272Z,3.80
2023-04-04T20:48:57.084Z,3.70
2023-04-04T20:50:02.734Z,4.00
2023-04-04T20:51:23.724Z,4.20
2023-04-04T20:52:29.583Z,4.50
2023-04-04T20:53:33.297Z,4.40
2023-04-04T20:54:38.775Z,4.10
2023-04-04T20:55:41.792Z,4.22
2023-04-04T20:56:48.358Z,4.47
2023-04-04T20:57:52.726Z,4.18
2023-04-04T20:58:55.641Z,5.13
2023-04-04T20:59:58.696Z,5.00
2023-04-04T21:01:01.481Z,5.32
2023-04-04T21:02:11.185Z,4.28
2023-04-04T21:03:33.544Z,5.10
2023-04-04T21:04:38.949Z,4.10
2023-04-04T21:05:43.092Z,3.85
2023-04-04T21:06:44.952Z,4.15
2023-04-04T21:07:47.829Z,3.70
2023-04-04T21:08:50.416Z,4.13
2023-04-04T21:09:54.277Z,4.50
2023-04-04T21:11:00.284Z,3.53
2023-04-04T21:12:03.040Z,3.65
2023-04-04T21:13:11.336Z,4.00
2023-04-04T21:14:25.298Z,3.67
2023-04-04T21:15:31.758Z,3.67
2023-04-04T21:16:38.577Z,3.28
2023-04-04T21:17:42.806Z,3.17
2023-04-04T21:18:49.880Z,3.33
2023-04-04T21:19:55.815Z,4.18
2023-04-04T21:21:00.108Z,3.20
2023-04-04T21:22:02.934Z,3.13
2023-04-04T21:23:08.879Z,3.20
2023-04-04T21:24:13.359Z,3.28
2023-04-04T21:25:20.708Z,3.17
2023-04-04T21:26:43.627Z,3.45
2023-04-04T21:27:56.141Z,3.58
2023-04-04T21:29:00.683Z,3.95
2023-04-04T21:30:07.792Z,3.50
2023-04-04T21:31:20.619Z,3.88
2023-04-04T21:32:24.600Z,3.85
2023-04-04T21:33:26.567Z,3.80
2023-04-04T21:34:31.778Z,4.82
2023-04-04T21:36:03.039Z,3.90
2023-04-04T21:37:05.138Z,4.07
2023-04-04T21:38:12.015Z,3.40
2023-04-04T21:39:14.911Z,3.03
2023-04-04T21:40:20.033Z,3.95
2023-04-04T21:41:46.401Z,3.53
2023-04-04T21:42:50.681Z,3.75
2023-04-04T21:43:53.547Z,3.85
2023-04-04T21:44:59.360Z,3.83
2023-04-04T21:46:01.821Z,3.70
2023-04-04T21:47:04.433Z,3.75
2023-04-04T21:48:10.421Z,3.70
2023-04-04T21:49:15.903Z,4.00
2023-04-04T21:50:20.270Z,4.10
2023-04-04T21:51:23.411Z,4.10
2023-04-04T21:52:25.795Z,4.00
2023-04-04T21:53:33.301Z,3.90
2023-04-04T21:54:41.088Z,4.00
2023-04-04T21:55:45.071Z,3.47
2023-04-04T21:56:47.104Z,3.70
2023-04-04T21:57:51.047Z,3.45
2023-04-04T21:58:53.779Z,4.00
2023-04-04T21:59:56.980Z,3.67
2023-04-04T22:00:58.996Z,3.78
2023-04-04T22:02:02.437Z,3.60
2023-04-04T22:03:04.882Z,3.72
2023-04-04T22:04:07.543Z,4.10
2023-04-04T22:05:12.557Z,4.10
2023-04-04T22:06:19.378Z,4.45
2023-04-04T22:07:20.999Z,4.05
2023-04-04T22:08:23.609Z,4.30
2023-04-04T22:09:25.969Z,3.75
2023-04-04T22:10:27.595Z,4.28
2023-04-04T22:11:32.872Z,3.85
2023-04-04T22:12:40.584Z,3.78
2023-04-04T22:13:48.838Z,4.35
2023-04-04T22:15:04.801Z,3.75
2023-04-04T22:18:57.726Z,3.13
2023-04-04T22:19:59.859Z,3.28
2023-04-04T22:21:04.848Z,3.00
2023-04-04T22:22:10.236Z,3.83
2023-04-04T22:23:23.096Z,3.20
2023-04-04T22:24:26.080Z,2.90
2023-04-04T22:25:31.331Z,3.65
2023-04-04T22:26:36.541Z,3.40
2023-04-04T22:27:43.062Z,3.58
2023-04-04T22:28:49.534Z,4.00
2023-04-04T22:29:53.566Z,3.88
2023-04-04T22:30:57.514Z,3.40
2023-04-04T22:32:02.024Z,3.72
2023-04-04T22:33:07.944Z,4.05
2023-04-04T22:34:14.755Z,3.60
2023-04-04T22:35:20.421Z,3.33
2023-04-04T22:36:23.871Z,3.67
2023-04-04T22:37:30.417Z,3.42
2023-04-04T22:38:36.712Z,3.60
2023-04-04T22:39:39.018Z,4.38
2023-04-04T22:40:42.533Z,3.90
2023-04-04T22:41:45.706Z,4.15
2023-04-04T22:42:47.736Z,3.40
2023-04-04T22:43:52.040Z,3.58
2023-04-04T22:44:53.810Z,3.60
2023-04-04T22:45:55.855Z,3.78
2023-04-04T22:47:04.331Z,4.22
2023-04-04T22:48:12.030Z,4.07
2023-04-04T22:49:16.347Z,4.25
2023-04-04T22:50:20.048Z,3.53
2023-04-04T22:51:25.350Z,3.45
2023-04-04T22:52:30.051Z,3.78
2023-04-04T22:53:36.514Z,3.58
2023-04-04T22:54:38.579Z,3.60